sensor_id;sensor_type;location;lat;lon;timestamp;temperature;humidity
6956;DHT22;50345;51.136;16.886;2023-09-19T00:00:01;19.90;99.90
6956;DHT22;50345;51.136;16.886;2023-09-19T00:02:27;19.90;99.90
6956;DHT22;50345;51.136;16.886;2023-09-19T00:04:52;20.00;99.90
6956;DHT22;50345;51.136;16.886;2023-09-19T00:07:19;20.00;99.90
6956;DHT22;50345;51.136;16.886;2023-09-19T00:09:44;20.00;99.90
6956;DHT22;50345;51.136;16.886;2023-09-19T00:12:10;20.00;99.90
6956;DHT22;50345;51.136;16.886;2023-09-19T00:14:38;20.10;99.90
6956;DHT22;50345;51.136;16.886;2023-09-19T00:17:04;20.10;99.90
6956;DHT22;50345;51.136;16.886;2023-09-19T00:19:37;20.20;99.90
6956;DHT22;50345;51.136;16.886;2023-09-19T00:22:08;20.20;99.90
6956;DHT22;50345;51.136;16.886;2023-09-19T00:24:33;20.20;99.90
6956;DHT22;50345;51.136;16.886;2023-09-19T00:26:59;20.30;99.90
6956;DHT22;50345;51.136;16.886;2023-09-19T00:29:26;20.20;99.90
6956;DHT22;50345;51.136;16.886;2023-09-19T00:31:55;20.30;99.90
6956;DHT22;50345;51.136;16.886;2023-09-19T00:34:22;20.30;99.90
6956;DHT22;50345;51.136;16.886;2023-09-19T00:36:48;20.30;99.90
6956;DHT22;50345;51.136;16.886;2023-09-19T00:39:13;20.30;99.90
6956;DHT22;50345;51.136;16.886;2023-09-19T00:41:39;20.20;99.90
6956;DHT22;50345;51.136;16.886;2023-09-19T00:44:06;20.20;99.90
6956;DHT22;50345;51.136;16.886;2023-09-19T00:46:32;20.20;99.90
6956;DHT22;50345;51.136;16.886;2023-09-19T00:48:58;20.20;99.90
6956;DHT22;50345;51.136;16.886;2023-09-19T00:51:25;20.30;99.90
6956;DHT22;50345;51.136;16.886;2023-09-19T00:53:54;20.30;99.90
6956;DHT22;50345;51.136;16.886;2023-09-19T00:56:20;20.30;99.90
6956;DHT22;50345;51.136;16.886;2023-09-19T00:58:46;20.20;99.90
6956;DHT22;50345;51.136;16.886;2023-09-19T01:01:13;20.20;99.90
6956;DHT22;50345;51.136;16.886;2023-09-19T01:03:41;20.20;99.90
6956;DHT22;50345;51.136;16.886;2023-09-19T01:06:07;20.20;99.90
6956;DHT22;50345;51.136;16.886;2023-09-19T01:08:34;20.20;99.90
6956;DHT22;50345;51.136;16.886;2023-09-19T01:11:14;20.10;99.90
6956;DHT22;50345;51.136;16.886;2023-09-19T01:13:47;20.10;99.90
6956;DHT22;50345;51.136;16.886;2023-09-19T01:25:42;19.80;99.90
6956;DHT22;50345;51.136;16.886;2023-09-19T01:28:32;19.80;99.90
6956;DHT22;50345;51.136;16.886;2023-09-19T01:31:02;19.70;99.90
6956;DHT22;50345;51.136;16.886;2023-09-19T01:33:31;19.70;99.90
6956;DHT22;50345;51.136;16.886;2023-09-19T01:36:16;19.70;99.90
6956;DHT22;50345;51.136;16.886;2023-09-19T01:38:42;19.70;99.90
6956;DHT22;50345;51.136;16.886;2023-09-19T01:41:11;19.60;99.90
6956;DHT22;50345;51.136;16.886;2023-09-19T01:43:42;19.60;99.90
6956;DHT22;50345;51.136;16.886;2023-09-19T01:46:21;19.60;99.90
6956;DHT22;50345;51.136;16.886;2023-09-19T01:54:31;19.50;99.90
6956;DHT22;50345;51.136;16.886;2023-09-19T01:57:03;19.50;99.90
6956;DHT22;50345;51.136;16.886;2023-09-19T01:59:54;19.50;99.90
6956;DHT22;50345;51.136;16.886;2023-09-19T02:02:22;19.50;99.90
6956;DHT22;50345;51.136;16.886;2023-09-19T02:04:48;19.50;99.90
6956;DHT22;50345;51.136;16.886;2023-09-19T02:07:16;19.50;99.90
6956;DHT22;50345;51.136;16.886;2023-09-19T02:09:42;19.40;99.90
6956;DHT22;50345;51.136;16.886;2023-09-19T02:12:09;19.40;99.90
6956;DHT22;50345;51.136;16.886;2023-09-19T02:14:35;19.40;99.90
6956;DHT22;50345;51.136;16.886;2023-09-19T02:17:02;19.50;99.90
6956;DHT22;50345;51.136;16.886;2023-09-19T02:19:28;19.40;99.90
6956;DHT22;50345;51.136;16.886;2023-09-19T02:21:55;19.40;99.90
6956;DHT22;50345;51.136;16.886;2023-09-19T02:24:21;19.40;99.90
6956;DHT22;50345;51.136;16.886;2023-09-19T02:26:46;19.40;99.90
6956;DHT22;50345;51.136;16.886;2023-09-19T02:29:12;19.40;99.90
6956;DHT22;50345;51.136;16.886;2023-09-19T02:31:39;19.30;99.90
6956;DHT22;50345;51.136;16.886;2023-09-19T02:34:04;19.40;99.90
6956;DHT22;50345;51.136;16.886;2023-09-19T02:36:32;19.30;99.90
6956;DHT22;50345;51.136;16.886;2023-09-19T02:38:57;19.20;99.90
6956;DHT22;50345;51.136;16.886;2023-09-19T02:41:23;19.20;99.90
6956;DHT22;50345;51.136;16.886;2023-09-19T03:54:51;18.90;99.90
6956;DHT22;50345;51.136;16.886;2023-09-19T03:57:16;18.80;99.90
6956;DHT22;50345;51.136;16.886;2023-09-19T03:59:46;18.80;99.90
6956;DHT22;50345;51.136;16.886;2023-09-19T04:02:11;18.70;99.90
6956;DHT22;50345;51.136;16.886;2023-09-19T04:04:48;18.70;99.90
6956;DHT22;50345;51.136;16.886;2023-09-19T04:07:13;18.70;99.90
6956;DHT22;50345;51.136;16.886;2023-09-19T06:46:51;19.50;99.90
6956;DHT22;50345;51.136;16.886;2023-09-19T06:49:17;19.50;99.90
6956;DHT22;50345;51.136;16.886;2023-09-19T06:51:43;19.50;99.90
6956;DHT22;50345;51.136;16.886;2023-09-19T06:54:09;19.50;99.90
6956;DHT22;50345;51.136;16.886;2023-09-19T06:56:35;19.40;99.90
6956;DHT22;50345;51.136;16.886;2023-09-19T06:59:00;19.50;99.90
6956;DHT22;50345;51.136;16.886;2023-09-19T07:01:28;19.50;99.90
6956;DHT22;50345;51.136;16.886;2023-09-19T07:03:53;19.50;99.90
6956;DHT22;50345;51.136;16.886;2023-09-19T07:06:20;19.50;99.90
6956;DHT22;50345;51.136;16.886;2023-09-19T07:08:45;19.60;99.90
6956;DHT22;50345;51.136;16.886;2023-09-19T07:11:11;19.60;99.90
6956;DHT22;50345;51.136;16.886;2023-09-19T07:13:37;19.70;99.90
6956;DHT22;50345;51.136;16.886;2023-09-19T07:16:04;19.90;99.90
6956;DHT22;50345;51.136;16.886;2023-09-19T07:18:29;20.00;99.90
6956;DHT22;50345;51.136;16.886;2023-09-19T07:20:58;20.30;99.90
6956;DHT22;50345;51.136;16.886;2023-09-19T07:23:30;20.50;99.90
6956;DHT22;50345;51.136;16.886;2023-09-19T07:26:01;20.70;99.90
6956;DHT22;50345;51.136;16.886;2023-09-19T07:28:27;21.00;99.90
6956;DHT22;50345;51.136;16.886;2023-09-19T07:30:53;21.30;99.90
6956;DHT22;50345;51.136;16.886;2023-09-19T07:33:19;21.40;99.90
6956;DHT22;50345;51.136;16.886;2023-09-19T07:40:38;21.50;99.90
6956;DHT22;50345;51.136;16.886;2023-09-19T07:43:03;21.50;99.90
6956;DHT22;50345;51.136;16.886;2023-09-19T07:45:31;21.40;99.90
6956;DHT22;50345;51.136;16.886;2023-09-19T07:47:56;21.30;99.90
6956;DHT22;50345;51.136;16.886;2023-09-19T07:50:22;21.20;99.90
6956;DHT22;50345;51.136;16.886;2023-09-19T07:52:49;21.00;99.90
6956;DHT22;50345;51.136;16.886;2023-09-19T07:55:16;20.90;99.90
6956;DHT22;50345;51.136;16.886;2023-09-19T07:57:43;20.80;99.90
6956;DHT22;50345;51.136;16.886;2023-09-19T08:00:09;20.80;99.90
6956;DHT22;50345;51.136;16.886;2023-09-19T08:02:36;20.70;99.90
6956;DHT22;50345;51.136;16.886;2023-09-19T08:05:03;20.80;99.90
6956;DHT22;50345;51.136;16.886;2023-09-19T08:07:34;20.80;99.90
6956;DHT22;50345;51.136;16.886;2023-09-19T08:10:02;20.80;99.90
6956;DHT22;50345;51.136;16.886;2023-09-19T08:12:27;21.00;99.90
6956;DHT22;50345;51.136;16.886;2023-09-19T08:14:53;21.10;99.90
6956;DHT22;50345;51.136;16.886;2023-09-19T08:17:18;21.20;99.90
6956;DHT22;50345;51.136;16.886;2023-09-19T08:19:45;21.30;99.90
6956;DHT22;50345;51.136;16.886;2023-09-19T08:22:11;21.30;99.90
6956;DHT22;50345;51.136;16.886;2023-09-19T08:24:37;21.40;99.90
6956;DHT22;50345;51.136;16.886;2023-09-19T08:27:04;21.40;99.90
6956;DHT22;50345;51.136;16.886;2023-09-19T08:29:31;21.60;99.90
6956;DHT22;50345;51.136;16.886;2023-09-19T08:31:57;21.70;99.90
6956;DHT22;50345;51.136;16.886;2023-09-19T08:34:24;21.80;99.90
6956;DHT22;50345;51.136;16.886;2023-09-19T08:36:53;21.80;99.90
6956;DHT22;50345;51.136;16.886;2023-09-19T08:39:22;21.80;99.90
6956;DHT22;50345;51.136;16.886;2023-09-19T08:41:48;21.80;99.90
6956;DHT22;50345;51.136;16.886;2023-09-19T08:44:13;21.80;99.90
6956;DHT22;50345;51.136;16.886;2023-09-19T08:46:41;21.80;99.90
6956;DHT22;50345;51.136;16.886;2023-09-19T08:49:38;21.80;99.90
6956;DHT22;50345;51.136;16.886;2023-09-19T08:52:20;21.90;99.90
6956;DHT22;50345;51.136;16.886;2023-09-19T08:54:47;22.10;99.90
6956;DHT22;50345;51.136;16.886;2023-09-19T08:57:14;22.20;99.90
6956;DHT22;50345;51.136;16.886;2023-09-19T08:59:50;22.40;99.90
6956;DHT22;50345;51.136;16.886;2023-09-19T09:02:16;22.50;99.90
6956;DHT22;50345;51.136;16.886;2023-09-19T09:04:45;22.40;99.90
6956;DHT22;50345;51.136;16.886;2023-09-19T09:07:12;22.40;99.90
6956;DHT22;50345;51.136;16.886;2023-09-19T09:09:42;22.30;99.90
6956;DHT22;50345;51.136;16.886;2023-09-19T09:12:13;22.30;99.90
6956;DHT22;50345;51.136;16.886;2023-09-19T09:14:46;22.10;99.90
6956;DHT22;50345;51.136;16.886;2023-09-19T09:17:16;22.00;99.90
6956;DHT22;50345;51.136;16.886;2023-09-19T09:19:46;22.00;99.90
6956;DHT22;50345;51.136;16.886;2023-09-19T09:22:12;22.00;99.90
6956;DHT22;50345;51.136;16.886;2023-09-19T09:24:54;22.00;99.90
6956;DHT22;50345;51.136;16.886;2023-09-19T09:27:22;22.00;99.90
6956;DHT22;50345;51.136;16.886;2023-09-19T09:29:50;22.00;99.90
6956;DHT22;50345;51.136;16.886;2023-09-19T09:32:34;21.90;99.90
6956;DHT22;50345;51.136;16.886;2023-09-19T09:35:07;21.90;99.90
6956;DHT22;50345;51.136;16.886;2023-09-19T09:37:35;21.70;99.90
6956;DHT22;50345;51.136;16.886;2023-09-19T09:40:04;21.60;99.90
6956;DHT22;50345;51.136;16.886;2023-09-19T09:42:56;21.60;99.90
6956;DHT22;50345;51.136;16.886;2023-09-19T09:45:24;21.70;99.90
6956;DHT22;50345;51.136;16.886;2023-09-19T09:47:59;21.90;99.90
6956;DHT22;50345;51.136;16.886;2023-09-19T09:50:33;22.10;99.90
6956;DHT22;50345;51.136;16.886;2023-09-19T09:53:31;22.30;99.90
6956;DHT22;50345;51.136;16.886;2023-09-19T09:56:07;22.70;99.90
6956;DHT22;50345;51.136;16.886;2023-09-19T09:58:48;23.00;99.90
6956;DHT22;50345;51.136;16.886;2023-09-19T10:01:14;23.30;99.90
6956;DHT22;50345;51.136;16.886;2023-09-19T10:03:41;23.60;99.90
6956;DHT22;50345;51.136;16.886;2023-09-19T10:06:14;23.70;99.90
6956;DHT22;50345;51.136;16.886;2023-09-19T10:09:03;24.00;99.90
6956;DHT22;50345;51.136;16.886;2023-09-19T10:11:31;24.20;99.90
6956;DHT22;50345;51.136;16.886;2023-09-19T10:14:00;24.00;99.90
6956;DHT22;50345;51.136;16.886;2023-09-19T10:16:30;23.60;99.90
6956;DHT22;50345;51.136;16.886;2023-09-19T10:19:00;23.30;99.90
6956;DHT22;50345;51.136;16.886;2023-09-19T10:21:28;23.20;99.90
6956;DHT22;50345;51.136;16.886;2023-09-19T10:23:58;23.20;99.90
6956;DHT22;50345;51.136;16.886;2023-09-19T10:26:26;23.20;99.90
6956;DHT22;50345;51.136;16.886;2023-09-19T10:28:56;23.10;99.90
6956;DHT22;50345;51.136;16.886;2023-09-19T10:31:23;23.40;99.90
6956;DHT22;50345;51.136;16.886;2023-09-19T10:33:51;23.60;99.90
6956;DHT22;50345;51.136;16.886;2023-09-19T10:36:19;23.80;99.90
6956;DHT22;50345;51.136;16.886;2023-09-19T10:38:45;24.20;99.90
6956;DHT22;50345;51.136;16.886;2023-09-19T10:41:14;25.00;99.90
6956;DHT22;50345;51.136;16.886;2023-09-19T10:43:43;25.60;99.90
6956;DHT22;50345;51.136;16.886;2023-09-19T10:46:11;26.10;98.30
6956;DHT22;50345;51.136;16.886;2023-09-19T10:48:39;26.40;96.70
6956;DHT22;50345;51.136;16.886;2023-09-19T10:51:15;26.60;95.40
6956;DHT22;50345;51.136;16.886;2023-09-19T10:56:20;26.20;93.30
6956;DHT22;50345;51.136;16.886;2023-09-19T10:58:47;26.30;92.10
6956;DHT22;50345;51.136;16.886;2023-09-19T11:01:14;26.60;90.90
6956;DHT22;50345;51.136;16.886;2023-09-19T11:03:41;26.90;89.50
6956;DHT22;50345;51.136;16.886;2023-09-19T11:06:19;26.90;87.00
6956;DHT22;50345;51.136;16.886;2023-09-19T11:08:55;26.60;84.50
6956;DHT22;50345;51.136;16.886;2023-09-19T11:11:39;26.00;85.70
6956;DHT22;50345;51.136;16.886;2023-09-19T11:36:07;27.60;69.10
6956;DHT22;50345;51.136;16.886;2023-09-19T12:04:44;29.40;91.10
6956;DHT22;50345;51.136;16.886;2023-09-19T12:17:17;29.30;88.40
6956;DHT22;50345;51.136;16.886;2023-09-19T12:22:19;29.20;56.70
6956;DHT22;50345;51.136;16.886;2023-09-19T12:24:46;29.30;56.90
6956;DHT22;50345;51.136;16.886;2023-09-19T14:05:36;37.60;37.50
6956;DHT22;50345;51.136;16.886;2023-09-19T14:08:01;38.10;36.30
6956;DHT22;50345;51.136;16.886;2023-09-19T14:10:28;38.20;35.40
6956;DHT22;50345;51.136;16.886;2023-09-19T14:12:57;38.50;36.00
6956;DHT22;50345;51.136;16.886;2023-09-19T14:15:25;38.80;36.90
6956;DHT22;50345;51.136;16.886;2023-09-19T14:17:56;39.00;34.30
6956;DHT22;50345;51.136;16.886;2023-09-19T14:20:22;39.00;34.00
6956;DHT22;50345;51.136;16.886;2023-09-19T14:22:48;39.00;34.10
6956;DHT22;50345;51.136;16.886;2023-09-19T14:25:14;39.20;33.70
6956;DHT22;50345;51.136;16.886;2023-09-19T14:27:39;39.00;35.70
6956;DHT22;50345;51.136;16.886;2023-09-19T14:30:07;38.70;36.30
6956;DHT22;50345;51.136;16.886;2023-09-19T14:34:59;36.40;39.20
6956;DHT22;50345;51.136;16.886;2023-09-19T14:37:24;36.10;47.50
6956;DHT22;50345;51.136;16.886;2023-09-19T14:39:50;35.80;53.70
6956;DHT22;50345;51.136;16.886;2023-09-19T14:42:15;34.50;47.60
6956;DHT22;50345;51.136;16.886;2023-09-19T14:54:31;32.90;43.90
6956;DHT22;50345;51.136;16.886;2023-09-19T14:59:33;35.70;60.20
6956;DHT22;50345;51.136;16.886;2023-09-19T15:04:27;37.40;35.10
6956;DHT22;50345;51.136;16.886;2023-09-19T15:06:53;36.70;37.00
6956;DHT22;50345;51.136;16.886;2023-09-19T15:09:24;36.70;37.50
6956;DHT22;50345;51.136;16.886;2023-09-19T15:11:52;34.80;37.50
6956;DHT22;50345;51.136;16.886;2023-09-19T15:14:18;32.90;41.10
6956;DHT22;50345;51.136;16.886;2023-09-19T15:16:43;31.40;42.80
6956;DHT22;50345;51.136;16.886;2023-09-19T15:19:09;30.80;44.80
6956;DHT22;50345;51.136;16.886;2023-09-19T15:21:35;31.50;45.40
6956;DHT22;50345;51.136;16.886;2023-09-19T15:24:03;32.80;43.40
6956;DHT22;50345;51.136;16.886;2023-09-19T15:26:29;33.90;41.30
6956;DHT22;50345;51.136;16.886;2023-09-19T15:28:55;35.00;40.40
6956;DHT22;50345;51.136;16.886;2023-09-19T15:31:22;34.90;40.30
6956;DHT22;50345;51.136;16.886;2023-09-19T15:33:47;33.60;41.30
6956;DHT22;50345;51.136;16.886;2023-09-19T16:06:13;28.70;75.10
6956;DHT22;50345;51.136;16.886;2023-09-19T16:08:52;28.60;75.10
6956;DHT22;50345;51.136;16.886;2023-09-19T16:13:48;26.70;90.10
6956;DHT22;50345;51.136;16.886;2023-09-19T16:16:14;26.60;90.10
6956;DHT22;50345;51.136;16.886;2023-09-19T16:28:39;24.90;68.70
6956;DHT22;50345;51.136;16.886;2023-09-19T16:31:06;24.60;67.10
6956;DHT22;50345;51.136;16.886;2023-09-19T16:33:33;24.40;71.30
6956;DHT22;50345;51.136;16.886;2023-09-19T16:35:59;24.20;74.30
6956;DHT22;50345;51.136;16.886;2023-09-19T16:38:26;24.20;78.90
6956;DHT22;50345;51.136;16.886;2023-09-19T16:40:56;23.80;84.20
6956;DHT22;50345;51.136;16.886;2023-09-19T16:43:24;23.60;84.40
6956;DHT22;50345;51.136;16.886;2023-09-19T16:45:56;23.40;85.10
6956;DHT22;50345;51.136;16.886;2023-09-19T16:48:23;23.30;91.30
6956;DHT22;50345;51.136;16.886;2023-09-19T16:50:49;23.10;92.00
6956;DHT22;50345;51.136;16.886;2023-09-19T16:53:16;22.90;93.00
6956;DHT22;50345;51.136;16.886;2023-09-19T16:55:43;22.90;94.40
6956;DHT22;50345;51.136;16.886;2023-09-19T16:58:09;22.70;96.00
6956;DHT22;50345;51.136;16.886;2023-09-19T17:03:02;22.50;99.90
6956;DHT22;50345;51.136;16.886;2023-09-19T17:10:32;22.20;83.70
6956;DHT22;50345;51.136;16.886;2023-09-19T17:12:58;21.80;87.40
6956;DHT22;50345;51.136;16.886;2023-09-19T17:15:24;21.70;93.20
6956;DHT22;50345;51.136;16.886;2023-09-19T17:17:50;21.60;95.60
6956;DHT22;50345;51.136;16.886;2023-09-19T17:25:09;21.10;99.90
6956;DHT22;50345;51.136;16.886;2023-09-19T17:27:36;21.30;99.90
6956;DHT22;50345;51.136;16.886;2023-09-19T17:30:02;21.10;99.90
6956;DHT22;50345;51.136;16.886;2023-09-19T17:32:30;20.90;99.90
6956;DHT22;50345;51.136;16.886;2023-09-19T17:34:56;20.90;99.90
6956;DHT22;50345;51.136;16.886;2023-09-19T17:37:22;20.80;99.90
6956;DHT22;50345;51.136;16.886;2023-09-19T17:39:48;20.80;99.90
6956;DHT22;50345;51.136;16.886;2023-09-19T17:42:13;20.60;99.90
6956;DHT22;50345;51.136;16.886;2023-09-19T17:44:39;20.60;99.90
6956;DHT22;50345;51.136;16.886;2023-09-19T17:47:05;20.50;99.90
6956;DHT22;50345;51.136;16.886;2023-09-19T17:49:30;20.40;99.90
6956;DHT22;50345;51.136;16.886;2023-09-19T17:51:56;20.30;99.90
6956;DHT22;50345;51.136;16.886;2023-09-19T17:54:21;20.20;99.90
6956;DHT22;50345;51.136;16.886;2023-09-19T17:56:48;20.30;99.90
6956;DHT22;50345;51.136;16.886;2023-09-19T17:59:14;20.10;99.90
6956;DHT22;50345;51.136;16.886;2023-09-19T18:01:40;20.20;99.90
6956;DHT22;50345;51.136;16.886;2023-09-19T18:04:07;20.10;99.90
6956;DHT22;50345;51.136;16.886;2023-09-19T18:06:33;20.10;99.90
6956;DHT22;50345;51.136;16.886;2023-09-19T18:09:00;20.00;99.90
6956;DHT22;50345;51.136;16.886;2023-09-19T18:31:07;19.30;99.90
6956;DHT22;50345;51.136;16.886;2023-09-19T18:33:33;19.20;99.90
6956;DHT22;50345;51.136;16.886;2023-09-19T18:36:06;19.10;99.90
6956;DHT22;50345;51.136;16.886;2023-09-19T18:41:13;19.00;99.90
6956;DHT22;50345;51.136;16.886;2023-09-19T18:43:39;18.80;99.90
6956;DHT22;50345;51.136;16.886;2023-09-19T18:46:06;18.70;99.90
6956;DHT22;50345;51.136;16.886;2023-09-19T18:48:43;18.70;99.90
6956;DHT22;50345;51.136;16.886;2023-09-19T18:51:10;18.60;99.90
6956;DHT22;50345;51.136;16.886;2023-09-19T18:53:37;18.60;99.90
6956;DHT22;50345;51.136;16.886;2023-09-19T18:56:11;18.50;99.90
6956;DHT22;50345;51.136;16.886;2023-09-19T19:03:32;18.30;99.90
6956;DHT22;50345;51.136;16.886;2023-09-19T19:06:03;18.30;99.90
6956;DHT22;50345;51.136;16.886;2023-09-19T19:08:29;18.20;99.90
6956;DHT22;50345;51.136;16.886;2023-09-19T19:13:23;18.10;99.90
6956;DHT22;50345;51.136;16.886;2023-09-19T20:02:10;17.10;99.90
6956;DHT22;50345;51.136;16.886;2023-09-19T20:04:35;17.00;99.90
6956;DHT22;50345;51.136;16.886;2023-09-19T20:07:02;17.00;99.90
6956;DHT22;50345;51.136;16.886;2023-09-19T20:09:28;16.90;99.90
6956;DHT22;50345;51.136;16.886;2023-09-19T20:11:54;16.80;99.90
6956;DHT22;50345;51.136;16.886;2023-09-19T20:14:20;16.80;99.90
6956;DHT22;50345;51.136;16.886;2023-09-19T20:16:45;16.70;99.90
6956;DHT22;50345;51.136;16.886;2023-09-19T20:19:11;16.70;99.90
6956;DHT22;50345;51.136;16.886;2023-09-19T20:21:37;16.60;99.90
6956;DHT22;50345;51.136;16.886;2023-09-19T20:24:05;16.60;99.90
6956;DHT22;50345;51.136;16.886;2023-09-19T20:26:35;16.60;99.90
6956;DHT22;50345;51.136;16.886;2023-09-19T20:29:03;16.60;99.90
6956;DHT22;50345;51.136;16.886;2023-09-19T20:31:31;16.60;99.90
6956;DHT22;50345;51.136;16.886;2023-09-19T20:33:59;16.50;99.90
6956;DHT22;50345;51.136;16.886;2023-09-19T20:36:25;16.50;99.90
6956;DHT22;50345;51.136;16.886;2023-09-19T20:38:50;16.50;99.90
6956;DHT22;50345;51.136;16.886;2023-09-19T20:41:17;16.50;99.90
6956;DHT22;50345;51.136;16.886;2023-09-19T20:43:43;16.50;99.90
6956;DHT22;50345;51.136;16.886;2023-09-19T20:46:08;16.50;99.90
6956;DHT22;50345;51.136;16.886;2023-09-19T20:48:36;16.50;99.90
6956;DHT22;50345;51.136;16.886;2023-09-19T20:51:12;16.40;99.90
6956;DHT22;50345;51.136;16.886;2023-09-19T20:53:43;16.40;99.90
6956;DHT22;50345;51.136;16.886;2023-09-19T20:56:09;16.40;99.90
6956;DHT22;50345;51.136;16.886;2023-09-19T20:58:37;16.30;99.90
6956;DHT22;50345;51.136;16.886;2023-09-19T21:01:04;16.30;99.90
6956;DHT22;50345;51.136;16.886;2023-09-19T21:03:31;16.30;99.90
6956;DHT22;50345;51.136;16.886;2023-09-19T21:06:05;16.30;99.90
6956;DHT22;50345;51.136;16.886;2023-09-19T21:08:31;16.30;99.90
6956;DHT22;50345;51.136;16.886;2023-09-19T21:11:13;16.30;99.90
6956;DHT22;50345;51.136;16.886;2023-09-19T21:13:40;16.30;99.90
6956;DHT22;50345;51.136;16.886;2023-09-19T21:16:07;16.30;99.90
6956;DHT22;50345;51.136;16.886;2023-09-19T21:18:33;16.20;99.90
6956;DHT22;50345;51.136;16.886;2023-09-19T21:21:03;16.20;99.90
6956;DHT22;50345;51.136;16.886;2023-09-19T21:23:33;16.20;99.90
6956;DHT22;50345;51.136;16.886;2023-09-19T21:25:59;16.10;99.90
6956;DHT22;50345;51.136;16.886;2023-09-19T21:28:25;16.00;99.90
6956;DHT22;50345;51.136;16.886;2023-09-19T21:30:59;16.00;99.90
6956;DHT22;50345;51.136;16.886;2023-09-19T21:33:32;15.90;99.90
6956;DHT22;50345;51.136;16.886;2023-09-19T21:35:59;15.90;99.90
6956;DHT22;50345;51.136;16.886;2023-09-19T21:38:25;15.80;99.90
6956;DHT22;50345;51.136;16.886;2023-09-19T21:40:51;15.70;99.90
6956;DHT22;50345;51.136;16.886;2023-09-19T21:43:17;15.70;99.90
6956;DHT22;50345;51.136;16.886;2023-09-19T21:45:44;15.70;99.90
6956;DHT22;50345;51.136;16.886;2023-09-19T21:48:10;15.60;99.90
6956;DHT22;50345;51.136;16.886;2023-09-19T21:50:36;15.60;99.90
6956;DHT22;50345;51.136;16.886;2023-09-19T21:53:05;15.60;99.90
6956;DHT22;50345;51.136;16.886;2023-09-19T21:55:31;15.50;99.90
6956;DHT22;50345;51.136;16.886;2023-09-19T21:57:57;15.50;99.90
6956;DHT22;50345;51.136;16.886;2023-09-19T22:00:26;15.40;99.90
6956;DHT22;50345;51.136;16.886;2023-09-19T22:03:04;15.40;99.90
6956;DHT22;50345;51.136;16.886;2023-09-19T22:05:33;15.40;99.90
6956;DHT22;50345;51.136;16.886;2023-09-19T22:08:00;15.40;99.90
6956;DHT22;50345;51.136;16.886;2023-09-19T22:10:26;15.30;99.90
6956;DHT22;50345;51.136;16.886;2023-09-19T22:12:52;15.30;99.90
6956;DHT22;50345;51.136;16.886;2023-09-19T22:15:17;15.30;99.90
6956;DHT22;50345;51.136;16.886;2023-09-19T22:17:43;15.30;99.90
6956;DHT22;50345;51.136;16.886;2023-09-19T22:20:09;15.30;99.90
6956;DHT22;50345;51.136;16.886;2023-09-19T22:22:54;15.20;99.90
6956;DHT22;50345;51.136;16.886;2023-09-19T22:25:23;15.20;99.90
6956;DHT22;50345;51.136;16.886;2023-09-19T22:27:51;15.30;99.90
6956;DHT22;50345;51.136;16.886;2023-09-19T22:30:17;15.30;99.90
6956;DHT22;50345;51.136;16.886;2023-09-19T22:32:45;15.30;99.90
6956;DHT22;50345;51.136;16.886;2023-09-19T22:35:10;15.30;99.90
6956;DHT22;50345;51.136;16.886;2023-09-19T22:37:36;15.30;99.90
6956;DHT22;50345;51.136;16.886;2023-09-19T22:40:03;15.30;99.90
6956;DHT22;50345;51.136;16.886;2023-09-19T22:42:37;15.30;99.90
6956;DHT22;50345;51.136;16.886;2023-09-19T22:45:04;15.30;99.90
6956;DHT22;50345;51.136;16.886;2023-09-19T22:47:37;15.30;99.90
6956;DHT22;50345;51.136;16.886;2023-09-19T22:50:03;15.20;99.90
6956;DHT22;50345;51.136;16.886;2023-09-19T22:52:32;15.10;99.90
6956;DHT22;50345;51.136;16.886;2023-09-19T22:55:02;15.10;99.90
6956;DHT22;50345;51.136;16.886;2023-09-19T22:57:30;15.10;99.90
6956;DHT22;50345;51.136;16.886;2023-09-19T22:59:56;15.10;99.90
6956;DHT22;50345;51.136;16.886;2023-09-19T23:02:22;15.10;99.90
6956;DHT22;50345;51.136;16.886;2023-09-19T23:04:54;15.00;99.90
6956;DHT22;50345;51.136;16.886;2023-09-19T23:07:27;15.00;99.90
6956;DHT22;50345;51.136;16.886;2023-09-19T23:09:52;15.00;99.90
6956;DHT22;50345;51.136;16.886;2023-09-19T23:12:19;15.00;99.90
6956;DHT22;50345;51.136;16.886;2023-09-19T23:14:49;15.00;99.90
6956;DHT22;50345;51.136;16.886;2023-09-19T23:17:14;15.00;99.90
6956;DHT22;50345;51.136;16.886;2023-09-19T23:19:46;14.90;99.90
6956;DHT22;50345;51.136;16.886;2023-09-19T23:22:17;14.90;99.90
6956;DHT22;50345;51.136;16.886;2023-09-19T23:24:43;14.80;99.90
6956;DHT22;50345;51.136;16.886;2023-09-19T23:27:09;14.80;99.90
6956;DHT22;50345;51.136;16.886;2023-09-19T23:29:37;14.80;99.90
6956;DHT22;50345;51.136;16.886;2023-09-19T23:32:05;14.70;99.90
6956;DHT22;50345;51.136;16.886;2023-09-19T23:34:31;14.70;99.90
6956;DHT22;50345;51.136;16.886;2023-09-19T23:36:58;14.70;99.90
6956;DHT22;50345;51.136;16.886;2023-09-19T23:39:24;14.70;99.90
6956;DHT22;50345;51.136;16.886;2023-09-19T23:41:50;14.60;99.90
6956;DHT22;50345;51.136;16.886;2023-09-19T23:44:16;14.60;99.90
6956;DHT22;50345;51.136;16.886;2023-09-19T23:46:42;14.60;99.90
6956;DHT22;50345;51.136;16.886;2023-09-19T23:49:08;14.50;99.90
6956;DHT22;50345;51.136;16.886;2023-09-19T23:51:36;14.40;99.90
6956;DHT22;50345;51.136;16.886;2023-09-19T23:54:03;14.40;99.90
6956;DHT22;50345;51.136;16.886;2023-09-19T23:56:39;14.40;99.90
6956;DHT22;50345;51.136;16.886;2023-09-19T23:59:07;14.40;99.90
